Terminal Aerodrome Forecast
Issued by NWS

Home | Current Version | Previous Version | Graphics & Text | Print | Product List | Glossary Off
Versions: 1 2 3 4 5 6 7 8 9 10 11 12 13 14 15 16 17

000
FTUS41 KCLE 301700
TAFFDY
TAF
KFDY 301728Z 3018/3118 28015G25KT P6SM FEW040
     FM310000 27010KT P6SM SCT100
     FM310300 24005KT P6SM OVC100
     FM310600 19008KT P6SM OVC035 WS020/24040KT
      TEMPO 3106/3110 -SHRA
     FM311300 33012KT P6SM BKN070=

USA.gov is the U.S. government's official web portal to all federal, state and local government web resources and services.